Time;durP1;ratioP1;P1;durP2;ratioP2;P2;SDS_P1;SDS_P2;PMS_P1;PMS_P2;Temp;Humidity;BMP_temperature;BMP_pressure;BME280_temperature;BME280_humidity;BME280_pressure;Samples;Min_cycle;Max_cycle;Signal;HPM_P1;HPM_P2
2023/12/30 00:01:29;;;;;;;610.53;319.02;;;;;;;10.18;100.00;97655.34;4978645;28;20771;-57
2023/12/30 00:03:55;;;;;;;527.38;344.08;;;;;;;10.28;100.00;97663.06;4982020;28;20018;-55
2023/12/30 00:06:20;;;;;;;545.97;265.42;;;;;;;10.26;100.00;97670.03;4980890;28;20042;-55
2023/12/30 00:08:46;;;;;;;558.35;269.25;;;;;;;10.19;100.00;97670.94;4981299;28;20037;-55
2023/12/30 00:11:11;;;;;;;576.90;355.33;;;;;;;10.47;100.00;97665.53;4982701;28;20042;-56
2023/12/30 00:13:37;;;;;;;597.70;279.35;;;;;;;10.13;100.00;97673.56;4982890;28;20454;-55
2023/12/30 00:16:03;;;;;;;544.20;271.13;;;;;;;10.51;100.00;97675.03;4979616;28;20038;-55
2023/12/30 00:18:29;;;;;;;559.50;279.63;;;;;;;10.39;100.00;97675.09;4985887;28;20111;-55
2023/12/30 00:20:54;;;;;;;499.08;249.52;;;;;;;10.28;100.00;97670.00;4986245;28;20046;-55
2023/12/30 00:23:20;;;;;;;570.40;325.98;;;;;;;10.54;100.00;97672.44;4981050;28;20022;-54
2023/12/30 00:25:46;;;;;;;605.88;350.85;;;;;;;10.57;100.00;97668.94;4980415;28;20083;-55
2023/12/30 00:28:11;;;;;;;548.30;296.02;;;;;;;10.66;100.00;97676.66;4982153;28;20023;-56
2023/12/30 00:30:37;;;;;;;629.28;302.38;;;;;;;10.46;100.00;97682.03;4977642;28;20588;-56
2023/12/30 00:33:03;;;;;;;575.22;407.45;;;;;;;10.53;100.00;97683.72;4982044;28;20050;-55
2023/12/30 00:35:28;;;;;;;548.55;275.13;;;;;;;10.21;100.00;97686.53;4977289;28;20049;-55
2023/12/30 00:37:54;;;;;;;620.13;393.20;;;;;;;10.18;100.00;97692.59;4983956;28;20029;-55
2023/12/30 00:40:19;;;;;;;524.50;271.25;;;;;;;10.39;100.00;97688.09;4981830;28;20062;-54
2023/12/30 00:42:45;;;;;;;606.60;301.60;;;;;;;10.17;100.00;97685.66;4981814;28;20117;-56
2023/12/30 00:45:10;;;;;;;545.20;274.63;;;;;;;10.12;100.00;97690.03;4979972;28;20030;-55
2023/12/30 00:47:35;;;;;;;558.63;267.23;;;;;;;10.08;100.00;97685.72;4979870;28;20038;-55
2023/12/30 00:50:00;;;;;;;548.75;328.73;;;;;;;10.15;100.00;97693.50;4981400;28;20025;-56
2023/12/30 00:52:26;;;;;;;584.28;373.45;;;;;;;9.77;100.00;97687.63;4981028;28;20100;-55
2023/12/30 00:54:51;;;;;;;533.05;280.20;;;;;;;9.89;100.00;97691.03;4982132;28;20242;-56
2023/12/30 00:57:17;;;;;;;548.17;317.55;;;;;;;10.18;100.00;97695.19;4976416;28;20098;-55
2023/12/30 00:59:42;;;;;;;604.03;377.73;;;;;;;9.98;100.00;97690.97;4977203;28;20057;-54
2023/12/30 01:02:08;;;;;;;555.65;326.65;;;;;;;9.79;100.00;97684.19;4977697;28;20065;-55
2023/12/30 01:04:33;;;;;;;617.78;316.35;;;;;;;9.98;100.00;97670.19;4976675;28;20045;-54
2023/12/30 01:06:59;;;;;;;766.13;518.88;;;;;;;10.09;100.00;97677.06;4979288;28;20048;-55
2023/12/30 01:09:24;;;;;;;586.35;278.73;;;;;;;9.94;100.00;97678.88;4975802;28;20434;-55
2023/12/30 01:11:49;;;;;;;558.63;257.65;;;;;;;9.64;100.00;97678.16;4977423;28;20038;-54
2023/12/30 01:14:15;;;;;;;601.25;279.98;;;;;;;9.58;100.00;97688.59;4978188;28;20101;-56
2023/12/30 01:16:40;;;;;;;651.85;333.13;;;;;;;9.60;100.00;97692.03;4977848;28;20045;-54
2023/12/30 01:19:05;;;;;;;568.15;271.92;;;;;;;9.41;100.00;97699.03;4976596;28;20076;-55
2023/12/30 01:21:31;;;;;;;606.78;267.35;;;;;;;9.37;100.00;97698.19;4976236;28;20038;-56
2023/12/30 01:23:56;;;;;;;563.05;285.40;;;;;;;9.46;100.00;97698.16;4975764;28;20030;-55
2023/12/30 01:26:21;;;;;;;554.15;275.05;;;;;;;9.44;100.00;97689.50;4982633;28;20046;-55
2023/12/30 01:28:47;;;;;;;654.20;310.70;;;;;;;9.81;100.00;97693.69;4976674;28;20044;-55
2023/12/30 01:31:14;;;;;;;633.17;444.45;;;;;;;9.92;100.00;97685.84;4977808;28;20049;-54
2023/12/30 01:33:39;;;;;;;671.03;308.50;;;;;;;9.69;100.00;97686.78;4977792;28;20165;-55
2023/12/30 01:36:05;;;;;;;567.85;265.02;;;;;;;9.33;100.00;97699.94;4971838;28;20074;-54
2023/12/30 01:38:30;;;;;;;568.28;291.63;;;;;;;9.16;100.00;97696.53;4977963;28;20083;-56
2023/12/30 01:40:56;;;;;;;538.92;257.45;;;;;;;9.21;100.00;97694.78;4977521;28;20038;-57
2023/12/30 01:43:26;;;;;;;581.33;279.55;;;;;;;9.33;100.00;97702.53;4976389;28;20030;-57
2023/12/30 01:45:53;;;;;;;570.55;303.90;;;;;;;9.59;100.00;97703.28;4974030;28;20046;-54
2023/12/30 01:48:20;;;;;;;618.65;295.38;;;;;;;9.39;100.00;97706.81;4973873;28;20021;-56
2023/12/30 01:50:46;;;;;;;624.22;274.00;;;;;;;9.41;100.00;97707.69;4974431;28;20589;-56
2023/12/30 01:53:11;;;;;;;559.88;266.88;;;;;;;9.49;100.00;97711.13;4976696;28;20030;-55
2023/12/30 01:55:37;;;;;;;623.80;281.35;;;;;;;9.49;100.00;97712.84;4975321;28;20037;-54
2023/12/30 01:58:03;;;;;;;582.10;284.42;;;;;;;9.46;100.00;97718.91;4973074;28;20085;-56
2023/12/30 02:00:31;;;;;;;569.53;275.20;;;;;;;9.40;100.00;97712.88;4978521;28;20125;-56
2023/12/30 02:02:57;;;;;;;544.22;269.08;;;;;;;9.29;100.00;97720.69;4979605;28;20123;-55
2023/12/30 02:05:22;;;;;;;596.92;275.55;;;;;;;9.13;100.00;97723.31;4973412;28;20069;-56
2023/12/30 02:07:48;;;;;;;658.65;297.77;;;;;;;9.05;100.00;97725.09;4978618;28;20025;-56
2023/12/30 02:10:13;;;;;;;541.25;256.50;;;;;;;9.19;100.00;97725.91;4976826;28;20039;-55
2023/12/30 02:12:39;;;;;;;645.28;262.60;;;;;;;9.20;100.00;97727.63;4980449;28;20105;-55
2023/12/30 02:15:15;;;;;;;555.55;267.98;;;;;;;9.41;100.00;97723.25;4980782;28;20101;-56
2023/12/30 02:17:41;;;;;;;628.08;242.50;;;;;;;9.55;100.00;97719.75;4973965;28;20086;-55
2023/12/30 02:20:07;;;;;;;532.38;268.35;;;;;;;9.41;100.00;97723.25;4982508;28;20327;-55
2023/12/30 02:22:32;;;;;;;502.73;244.38;;;;;;;9.35;100.00;97726.72;4980215;28;20037;-55
2023/12/30 02:24:59;;;;;;;531.22;236.70;;;;;;;9.62;100.00;97729.25;4978576;28;20076;-56
2023/12/30 02:27:28;;;;;;;527.42;251.90;;;;;;;9.60;100.00;97730.97;4980743;28;20058;-55
2023/12/30 02:29:53;;;;;;;544.40;314.65;;;;;;;9.43;100.00;97729.28;4983866;28;20048;-54
2023/12/30 02:32:18;;;;;;;569.33;265.20;;;;;;;9.43;100.00;97731.88;4981495;28;20407;-54
2023/12/30 02:34:44;;;;;;;616.13;311.10;;;;;;;9.42;100.00;97731.91;4989122;28;20485;-54
2023/12/30 02:37:10;;;;;;;551.03;311.67;;;;;;;9.68;100.00;97739.59;4980360;28;20144;-53
2023/12/30 02:39:35;;;;;;;599.95;259.80;;;;;;;9.89;100.00;97741.28;4980129;28;20655;-57
2023/12/30 02:42:01;;;;;;;523.40;250.48;;;;;;;9.77;100.00;97744.75;4980343;28;20225;-55
2023/12/30 02:44:26;;;;;;;526.13;268.83;;;;;;;9.80;100.00;97745.63;4982506;28;20414;-56
2023/12/30 02:46:51;;;;;;;568.13;286.70;;;;;;;9.68;100.00;97737.00;4978056;28;22685;-56
2023/12/30 02:49:17;;;;;;;573.20;337.20;;;;;;;10.26;100.00;97744.53;4981114;28;20390;-55
2023/12/30 02:51:42;;;;;;;594.72;266.13;;;;;;;9.92;100.00;97753.38;4979167;28;20498;-56
2023/12/30 02:54:07;;;;;;;584.10;288.98;;;;;;;9.87;100.00;97747.31;4976567;28;20035;-55
2023/12/30 02:56:33;;;;;;;584.90;343.45;;;;;;;10.11;100.00;97751.56;4977910;28;20109;-54
2023/12/30 02:59:01;;;;;;;529.25;273.80;;;;;;;10.31;100.00;97747.97;4978006;28;20034;-56
2023/12/30 03:01:28;;;;;;;544.05;292.48;;;;;;;10.15;100.00;97755.00;4978991;28;20066;-55
2023/12/30 03:03:55;;;;;;;537.30;258.30;;;;;;;10.31;100.00;97765.31;4977863;28;20025;-56
2023/12/30 03:06:21;;;;;;;506.35;256.17;;;;;;;10.07;100.00;97765.44;4977939;28;20043;-55
2023/12/30 03:08:47;;;;;;;620.22;340.33;;;;;;;10.38;100.00;97773.06;4980800;28;20027;-56
2023/12/30 03:11:13;;;;;;;565.28;267.33;;;;;;;10.68;100.00;97767.69;4982285;28;20163;-55
2023/12/30 03:13:38;;;;;;;663.92;283.50;;;;;;;10.29;100.00;97768.75;4979341;28;20062;-56
2023/12/30 03:16:04;;;;;;;537.42;253.55;;;;;;;9.94;100.00;97769.81;4982391;28;20058;-55
2023/12/30 03:18:30;;;;;;;567.88;256.73;;;;;;;9.97;100.00;97772.41;4975757;28;20037;-56
2023/12/30 03:20:55;;;;;;;500.90;259.05;;;;;;;9.90;100.00;97761.16;4976766;28;20319;-55
2023/12/30 03:23:21;;;;;;;580.35;286.23;;;;;;;9.87;100.00;97773.28;4979242;28;20034;-56
2023/12/30 03:25:46;;;;;;;620.20;280.75;;;;;;;10.19;100.00;97780.09;4980569;28;20057;-54
2023/12/30 03:28:11;;;;;;;669.22;469.70;;;;;;;10.19;100.00;97779.22;4978567;28;20117;-55
2023/12/30 03:30:36;;;;;;;600.70;289.60;;;;;;;10.06;100.00;97779.28;4980826;28;20161;-56
2023/12/30 03:33:02;;;;;;;605.30;336.38;;;;;;;10.08;100.00;97784.47;4979064;28;20082;-55
2023/12/30 03:35:27;;;;;;;567.60;305.48;;;;;;;9.96;100.00;97781.06;4977350;28;20095;-56
2023/12/30 03:37:53;;;;;;;611.90;360.50;;;;;;;10.31;100.00;97768.75;4980211;28;20057;-56
2023/12/30 03:40:18;;;;;;;597.50;342.83;;;;;;;10.07;100.00;97781.03;4977253;28;20046;-54
2023/12/30 03:42:43;;;;;;;696.67;392.63;;;;;;;9.92;100.00;97783.69;4976319;28;20022;-55
2023/12/30 03:45:09;;;;;;;612.10;334.20;;;;;;;9.89;100.00;97774.16;4978904;28;20494;-57
2023/12/30 03:47:35;;;;;;;594.55;340.48;;;;;;;9.51;100.00;97774.28;4983590;28;20488;-54
2023/12/30 03:50:00;;;;;;;584.92;351.13;;;;;;;9.56;100.00;97769.09;4980396;28;20018;-55
2023/12/30 03:52:26;;;;;;;629.80;335.38;;;;;;;9.41;100.00;97761.31;4975008;28;20367;-56
2023/12/30 03:54:53;;;;;;;604.08;300.95;;;;;;;9.45;100.00;97766.50;4978350;28;20465;-54
2023/12/30 03:57:18;;;;;;;590.42;390.73;;;;;;;9.49;100.00;97765.63;4980089;28;20159;-55
2023/12/30 03:59:43;;;;;;;610.58;276.30;;;;;;;9.28;100.00;97766.53;4978901;28;20705;-56
2023/12/30 04:02:09;;;;;;;546.33;279.92;;;;;;;8.84;100.00;97758.78;4977320;28;20056;-55
2023/12/30 04:04:35;;;;;;;559.55;276.70;;;;;;;8.67;100.00;97768.31;4983426;28;20034;-55
2023/12/30 04:07:00;;;;;;;580.10;327.27;;;;;;;8.51;100.00;97768.28;4979001;28;20046;-55
2023/12/30 04:09:25;;;;;;;564.20;344.98;;;;;;;8.64;100.00;97770.91;4976822;28;20035;-56
2023/12/30 04:11:51;;;;;;;617.85;296.15;;;;;;;8.50;100.00;97769.09;4976699;28;20562;-56
2023/12/30 04:14:16;;;;;;;578.38;269.95;;;;;;;8.70;100.00;97773.50;4975470;28;20039;-55
2023/12/30 04:16:41;;;;;;;578.58;259.42;;;;;;;8.68;100.00;97778.66;4978382;28;20034;-55
2023/12/30 04:19:07;;;;;;;513.47;261.42;;;;;;;8.60;100.00;97775.22;4975906;28;20023;-55
2023/12/30 04:21:32;;;;;;;590.45;307.88;;;;;;;8.51;100.00;97778.63;4978037;28;20125;-55
2023/12/30 04:23:57;;;;;;;551.92;285.80;;;;;;;8.43;100.00;97783.78;4979077;28;20153;-54
2023/12/30 04:26:23;;;;;;;511.90;257.83;;;;;;;8.41;100.00;97789.84;4979127;28;20048;-55
2023/12/30 04:28:48;;;;;;;602.58;260.35;;;;;;;8.35;100.00;97803.63;4975916;28;20104;-55
2023/12/30 04:31:14;;;;;;;500.45;239.15;;;;;;;8.45;100.00;97805.41;4977867;28;20477;-55
2023/12/30 04:33:39;;;;;;;573.00;243.50;;;;;;;8.71;100.00;97806.31;4976301;28;20795;-55
2023/12/30 04:36:05;;;;;;;577.25;275.95;;;;;;;8.64;100.00;97802.88;4977743;28;20470;-56
2023/12/30 04:38:31;;;;;;;496.98;251.20;;;;;;;9.03;100.00;97802.03;4980504;28;20018;-55
2023/12/30 04:40:56;;;;;;;480.25;240.38;;;;;;;9.11;100.00;97810.69;4974296;28;21107;-57
2023/12/30 04:43:21;;;;;;;548.72;243.50;;;;;;;9.07;100.00;97804.63;4977681;28;20402;-54
2023/12/30 04:45:47;;;;;;;561.15;257.48;;;;;;;9.22;100.00;97808.94;4976996;28;20553;-54
2023/12/30 04:48:12;;;;;;;523.60;247.07;;;;;;;9.18;100.00;97806.34;4976441;28;20121;-56
2023/12/30 04:50:37;;;;;;;581.65;267.15;;;;;;;8.87;100.00;97807.19;4977888;28;20061;-56
2023/12/30 04:53:03;;;;;;;495.88;247.68;;;;;;;8.90;100.00;97801.19;4977430;28;20018;-56
2023/12/30 04:55:28;;;;;;;534.83;258.30;;;;;;;8.77;100.00;97805.47;4974499;28;20061;-55
2023/12/30 04:57:54;;;;;;;693.25;461.98;;;;;;;9.24;100.00;97807.22;4977901;28;20099;-56
2023/12/30 05:00:19;;;;;;;537.10;332.85;;;;;;;9.48;100.00;97810.66;4972722;28;20089;-55
2023/12/30 05:02:45;;;;;;;622.53;379.85;;;;;;;9.31;100.00;97809.81;4978911;28;20022;-54
2023/12/30 05:05:11;;;;;;;541.25;234.82;;;;;;;9.19;100.00;97823.63;4975634;28;20079;-55
2023/12/30 05:07:36;;;;;;;509.13;236.82;;;;;;;9.17;100.00;97817.59;4978653;28;20018;-54
2023/12/30 05:10:02;;;;;;;589.33;439.05;;;;;;;9.10;100.00;97821.94;4974774;28;20546;-54
2023/12/30 05:12:27;;;;;;;558.55;246.48;;;;;;;8.56;100.00;97818.41;4976219;28;20142;-54
2023/12/30 05:14:52;;;;;;;574.97;314.48;;;;;;;8.56;100.00;97820.13;4977886;28;20122;-55
2023/12/30 05:17:18;;;;;;;509.70;239.68;;;;;;;8.42;100.00;97827.84;4977215;28;20128;-54
2023/12/30 05:19:44;;;;;;;677.63;303.23;;;;;;;8.26;100.00;97821.75;4976741;28;20022;-53
2023/12/30 05:22:09;;;;;;;534.97;324.23;;;;;;;8.49;100.00;97819.22;4977716;28;20034;-55
2023/12/30 05:24:35;;;;;;;501.85;236.35;;;;;;;8.34;100.00;97833.00;4976551;28;20073;-55
2023/12/30 05:27:01;;;;;;;567.40;262.92;;;;;;;8.40;100.00;97824.38;4993774;28;20046;-54
2023/12/30 05:29:26;;;;;;;549.70;246.05;;;;;;;8.15;100.00;97835.53;4975919;28;20034;-56
2023/12/30 05:31:51;;;;;;;655.92;323.08;;;;;;;8.52;100.00;97823.53;4971346;28;20042;-57
2023/12/30 05:34:17;;;;;;;556.28;253.10;;;;;;;8.70;100.00;97826.22;4980342;28;20041;-54
2023/12/30 05:36:42;;;;;;;523.05;248.48;;;;;;;8.83;100.00;97826.22;4974481;28;20462;-55
2023/12/30 05:39:07;;;;;;;521.65;252.02;;;;;;;8.75;100.00;97820.19;4975294;28;20750;-54
2023/12/30 05:41:33;;;;;;;580.10;277.98;;;;;;;8.91;100.00;97824.50;4974138;28;20038;-54
2023/12/30 05:43:58;;;;;;;523.70;281.45;;;;;;;9.07;100.00;97828.00;4976784;28;20015;-55
2023/12/30 05:46:23;;;;;;;527.40;297.33;;;;;;;9.22;100.00;97828.84;4974442;28;20140;-55
2023/12/30 05:48:49;;;;;;;598.47;297.38;;;;;;;9.15;100.00;97842.66;4975768;28;20026;-55
2023/12/30 05:51:14;;;;;;;484.25;239.90;;;;;;;9.17;100.00;97840.97;4974701;28;20474;-55
2023/12/30 05:53:40;;;;;;;559.70;295.77;;;;;;;9.33;100.00;97847.88;4975315;28;20415;-54
2023/12/30 05:56:07;;;;;;;499.25;216.60;;;;;;;9.31;100.00;97857.38;4972015;28;20042;-55
2023/12/30 05:58:34;;;;;;;473.35;230.63;;;;;;;9.12;100.00;97861.69;4975337;28;20073;-53
2023/12/30 06:01:00;;;;;;;550.95;227.77;;;;;;;9.37;100.00;97853.91;4973527;28;20096;-55
2023/12/30 06:03:25;;;;;;;534.25;245.70;;;;;;;9.50;100.00;97855.63;4975431;28;20026;-55
2023/12/30 06:05:50;;;;;;;515.75;246.45;;;;;;;9.51;100.00;97856.50;4974827;28;20067;-55
2023/12/30 06:08:17;;;;;;;524.80;243.77;;;;;;;9.28;100.00;97852.19;4975311;28;20022;-56
2023/12/30 06:10:42;;;;;;;558.90;263.63;;;;;;;9.40;100.00;97850.44;4972271;28;20046;-55
2023/12/30 06:13:08;;;;;;;508.55;304.08;;;;;;;9.39;100.00;97846.97;4979300;28;20400;-56
2023/12/30 06:15:33;;;;;;;526.00;259.08;;;;;;;9.57;100.00;97850.44;4980055;28;20031;-55
2023/12/30 06:17:58;;;;;;;634.58;243.27;;;;;;;9.68;100.00;97845.22;4975534;28;20113;-55
2023/12/30 06:20:24;;;;;;;468.98;230.45;;;;;;;9.69;100.00;97854.75;4973274;28;20114;-56
2023/12/30 06:22:49;;;;;;;588.90;264.27;;;;;;;9.50;100.00;97853.03;4976930;28;20058;-54
2023/12/30 06:25:14;;;;;;;583.78;290.90;;;;;;;9.63;100.00;97856.50;4972692;28;20065;-55
2023/12/30 06:27:40;;;;;;;525.20;232.63;;;;;;;9.74;100.00;97853.88;4974689;28;20105;-56
2023/12/30 06:30:06;;;;;;;497.38;266.35;;;;;;;9.38;100.00;97851.31;4975517;28;20552;-55
2023/12/30 06:32:32;;;;;;;569.97;264.33;;;;;;;9.21;100.00;97843.53;4978674;28;20040;-57
2023/12/30 06:34:57;;;;;;;546.70;278.90;;;;;;;9.40;100.00;97856.53;4974310;28;20023;-54
2023/12/30 06:37:22;;;;;;;512.35;286.90;;;;;;;9.37;100.00;97854.78;4973316;28;20038;-54
2023/12/30 06:39:48;;;;;;;619.20;243.70;;;;;;;9.45;100.00;97857.38;4973294;28;20090;-53
2023/12/30 06:42:13;;;;;;;510.85;260.05;;;;;;;9.51;100.00;97862.53;4973917;28;20027;-55
2023/12/30 06:44:38;;;;;;;560.13;410.15;;;;;;;9.61;100.00;97863.41;4977143;28;20034;-55
2023/12/30 06:47:05;;;;;;;602.40;421.50;;;;;;;9.76;100.00;97866.84;4972221;28;20050;-55
2023/12/30 06:49:30;;;;;;;560.67;358.70;;;;;;;9.59;100.00;97867.75;4973685;28;20055;-55
2023/12/30 06:51:56;;;;;;;615.92;313.35;;;;;;;9.84;100.00;97872.03;4976586;28;20120;-54
2023/12/30 06:54:22;;;;;;;598.38;337.70;;;;;;;9.88;100.00;97874.59;4973513;28;20064;-54
2023/12/30 06:56:49;;;;;;;592.20;322.70;;;;;;;9.45;100.00;97879.84;4973449;28;20182;-55
2023/12/30 06:59:15;;;;;;;581.67;339.08;;;;;;;9.62;100.00;97865.13;4979773;28;20205;-55
2023/12/30 07:01:41;;;;;;;608.00;277.10;;;;;;;9.67;100.00;97857.34;4979123;28;20514;-55
2023/12/30 07:04:06;;;;;;;577.25;365.27;;;;;;;9.54;100.00;97866.88;4979832;28;20513;-55
2023/12/30 07:06:32;;;;;;;563.72;354.48;;;;;;;9.57;100.00;97863.44;4975007;28;20073;-55
2023/12/30 07:08:57;;;;;;;617.50;258.33;;;;;;;9.63;100.00;97866.88;4976441;28;20033;-55
2023/12/30 07:11:23;;;;;;;535.70;332.88;;;;;;;9.60;100.00;97873.78;4976003;28;20050;-55
2023/12/30 07:13:48;;;;;;;659.67;344.55;;;;;;;10.00;100.00;97875.44;4977184;28;20025;-54
2023/12/30 07:16:15;;;;;;;552.97;236.85;;;;;;;9.57;100.00;97877.25;4979529;28;20038;-55
2023/12/30 07:18:41;;;;;;;520.60;238.60;;;;;;;9.43;100.00;97882.44;4977781;28;20062;-56
2023/12/30 07:21:06;;;;;;;502.15;244.35;;;;;;;9.50;100.00;97881.59;4976023;28;20077;-56
2023/12/30 07:23:31;;;;;;;504.77;227.40;;;;;;;9.73;100.00;97888.47;4975536;28;20426;-56
2023/12/30 07:25:57;;;;;;;614.22;293.40;;;;;;;9.71;100.00;97889.34;4972543;28;20041;-56
2023/12/30 07:28:22;;;;;;;488.40;229.30;;;;;;;9.64;100.00;97891.09;4978865;28;20034;-57
2023/12/30 07:30:48;;;;;;;548.38;242.40;;;;;;;9.59;100.00;97898.91;4974222;28;20034;-56
2023/12/30 07:33:14;;;;;;;507.52;233.45;;;;;;;9.53;100.00;97898.91;4978726;28;20045;-54
2023/12/30 07:35:39;;;;;;;537.60;241.73;;;;;;;9.34;100.00;97901.50;4975671;28;20034;-55
2023/12/30 07:38:04;;;;;;;503.40;235.02;;;;;;;9.66;100.00;97901.47;4978868;28;20045;-55
2023/12/30 07:40:30;;;;;;;496.13;252.70;;;;;;;9.44;100.00;97906.69;4975234;28;20068;-56
2023/12/30 07:42:55;;;;;;;605.78;248.25;;;;;;;9.39;100.00;97906.69;4977895;28;20022;-56
2023/12/30 07:45:20;;;;;;;543.72;253.20;;;;;;;9.67;100.00;97911.00;4978423;28;20031;-56
2023/12/30 07:47:46;;;;;;;491.25;248.43;;;;;;;9.62;100.00;97916.22;4980268;28;20034;-54
2023/12/30 07:50:11;;;;;;;491.98;236.02;;;;;;;9.73;100.00;97913.59;4974853;28;20473;-55
2023/12/30 07:52:36;;;;;;;548.50;243.57;;;;;;;9.47;100.00;97917.09;4977977;28;20023;-55
2023/12/30 07:55:02;;;;;;;619.00;291.45;;;;;;;9.49;100.00;97920.53;4973947;28;20034;-56
2023/12/30 07:57:27;;;;;;;542.88;309.20;;;;;;;9.93;100.00;97923.09;4976562;28;20539;-55
2023/12/30 07:59:53;;;;;;;636.33;270.13;;;;;;;9.46;100.00;97917.94;4977137;28;20029;-55
2023/12/30 08:02:18;;;;;;;534.60;270.48;;;;;;;9.60;100.00;97918.81;4975044;28;20490;-56
2023/12/30 08:04:44;;;;;;;590.53;311.17;;;;;;;9.68;100.00;97917.94;4975856;28;20460;-55
2023/12/30 08:07:09;;;;;;;516.65;227.77;;;;;;;9.62;100.00;97929.19;4975062;28;20079;-56
2023/12/30 08:09:36;;;;;;;517.08;226.18;;;;;;;9.92;100.00;97927.44;4979450;28;20078;-54
2023/12/30 08:12:02;;;;;;;563.53;261.48;;;;;;;9.70;100.00;97922.28;4976161;28;20041;-56
2023/12/30 08:14:27;;;;;;;558.08;245.43;;;;;;;9.92;100.00;97923.97;4979214;28;20034;-57
2023/12/30 08:16:53;;;;;;;637.33;289.90;;;;;;;10.09;100.00;97926.53;4973678;28;20039;-54
2023/12/30 08:19:18;;;;;;;543.40;293.25;;;;;;;9.97;100.00;97920.50;4973783;28;20123;-56
2023/12/30 08:21:44;;;;;;;620.88;357.30;;;;;;;9.60;100.00;97924.00;4975578;28;20105;-57
2023/12/30 08:24:11;;;;;;;522.90;271.85;;;;;;;9.66;100.00;97933.53;4977578;28;20026;-55
2023/12/30 08:26:36;;;;;;;562.95;289.50;;;;;;;9.63;100.00;97928.31;4978739;28;20034;-57
2023/12/30 08:29:01;;;;;;;694.60;326.40;;;;;;;10.22;100.00;97932.56;4975245;28;20023;-56
2023/12/30 08:31:27;;;;;;;528.58;256.77;;;;;;;10.00;100.00;97933.50;4973925;28;20029;-55
2023/12/30 08:33:52;;;;;;;605.72;247.48;;;;;;;10.25;100.00;97936.00;4980273;28;20462;-54
2023/12/30 08:36:17;;;;;;;578.60;293.60;;;;;;;10.28;100.00;97943.81;4975412;28;20049;-56
2023/12/30 08:38:43;;;;;;;533.58;245.43;;;;;;;10.49;100.00;97951.56;4976581;28;20041;-54
2023/12/30 08:41:14;;;;;;;534.03;280.85;;;;;;;10.49;100.00;97955.03;4975945;28;20038;-57
2023/12/30 08:43:43;;;;;;;529.30;244.13;;;;;;;10.49;100.00;97955.03;4974278;28;20648;-55
2023/12/30 08:46:09;;;;;;;547.13;307.40;;;;;;;10.42;100.00;97946.38;4973967;28;20118;-55
2023/12/30 08:48:35;;;;;;;597.55;276.15;;;;;;;10.49;100.00;97951.56;4975878;28;20027;-55
2023/12/30 08:51:01;;;;;;;650.55;293.23;;;;;;;10.29;100.00;97944.69;4976743;28;20041;-54
2023/12/30 08:53:26;;;;;;;507.65;264.80;;;;;;;10.26;100.00;97949.88;4976031;28;20573;-53
2023/12/30 08:55:52;;;;;;;649.30;385.88;;;;;;;10.54;100.00;97950.69;4973804;28;20038;-54
2023/12/30 08:58:18;;;;;;;504.63;257.80;;;;;;;10.65;100.00;97949.78;4975859;28;20096;-56
2023/12/30 09:00:44;;;;;;;532.72;238.73;;;;;;;10.54;100.00;97945.47;4975938;28;20038;-55
2023/12/30 09:03:09;;;;;;;527.35;242.07;;;;;;;10.89;100.00;97955.72;4971452;28;21381;-55
2023/12/30 09:05:34;;;;;;;508.67;275.70;;;;;;;11.29;100.00;97949.44;4977494;28;20090;-55
2023/12/30 09:08:03;;;;;;;617.47;323.88;;;;;;;11.03;100.00;97953.91;4980734;28;20034;-56
2023/12/30 09:10:29;;;;;;;526.67;258.52;;;;;;;10.89;100.00;97960.94;4980807;28;20137;-56
2023/12/30 09:12:54;;;;;;;542.65;259.80;;;;;;;10.96;100.00;97962.66;4974390;28;20100;-54
2023/12/30 09:15:20;;;;;;;540.38;269.80;;;;;;;10.88;100.00;97961.81;4979360;28;20026;-55
2023/12/30 09:17:45;;;;;;;578.85;258.55;;;;;;;11.14;100.00;97969.47;4978099;28;20528;-55
2023/12/30 09:20:11;;;;;;;616.53;353.15;;;;;;;11.35;100.00;97977.16;4979322;28;20100;-53
2023/12/30 09:22:36;;;;;;;572.88;273.77;;;;;;;11.43;100.00;97963.19;4975901;28;20073;-55
2023/12/30 09:25:01;;;;;;;650.42;256.73;;;;;;;11.81;100.00;97968.97;4981553;28;20436;-56
2023/12/30 09:27:27;;;;;;;496.90;268.15;;;;;;;11.83;100.00;97972.44;4983021;28;20069;-56
2023/12/30 09:29:52;;;;;;;626.40;393.58;;;;;;;11.45;100.00;97968.41;4979312;28;20490;-54
2023/12/30 09:32:17;;;;;;;684.58;441.35;;;;;;;12.33;100.00;97966.78;4973734;28;20061;-55
2023/12/30 09:34:43;;;;;;;593.22;379.02;;;;;;;11.94;100.00;97968.88;4975722;28;20044;-53
2023/12/30 09:37:09;;;;;;;660.17;313.73;;;;;;;12.32;100.00;97967.66;4978175;28;20043;-54
2023/12/30 09:39:34;;;;;;;617.90;279.42;;;;;;;14.31;100.00;97966.53;4978746;28;20038;-56
2023/12/30 09:41:59;;;;;;;660.45;336.25;;;;;;;14.98;100.00;97966.97;4978579;28;20387;-56
2023/12/30 09:44:25;;;;;;;590.38;348.10;;;;;;;14.30;100.00;97967.41;4977708;28;20026;-55
2023/12/30 09:46:52;;;;;;;596.50;283.77;;;;;;;15.30;100.00;97969.78;4979205;28;20046;-54
2023/12/30 09:49:19;;;;;;;601.72;267.40;;;;;;;15.15;100.00;97958.75;4977544;28;20030;-54
2023/12/30 09:51:45;;;;;;;561.22;245.32;;;;;;;13.76;100.00;97960.53;4979526;28;20031;-56
2023/12/30 09:54:10;;;;;;;772.30;282.75;;;;;;;13.11;100.00;97960.59;4970279;28;20173;-56
2023/12/30 09:56:36;;;;;;;612.88;265.13;;;;;;;12.68;100.00;97958.56;4974563;28;20033;-55
2023/12/30 09:59:02;;;;;;;687.20;291.70;;;;;;;13.14;100.00;97952.72;4977696;28;20089;-54
2023/12/30 10:01:28;;;;;;;702.35;285.00;;;;;;;13.00;100.00;97952.06;4976337;28;20034;-56
2023/12/30 10:03:54;;;;;;;647.50;314.85;;;;;;;13.07;100.00;97951.06;4973884;28;20053;-60
2023/12/30 10:06:21;;;;;;;621.45;271.33;;;;;;;13.16;100.00;97952.72;4976523;28;20732;-56
2023/12/30 10:08:48;;;;;;;646.05;285.23;;;;;;;12.65;100.00;97949.03;4976198;28;20042;-56
2023/12/30 10:11:15;;;;;;;627.22;403.65;;;;;;;12.04;100.00;97951.41;4974258;28;20498;-58
2023/12/30 10:13:40;;;;;;;583.38;329.65;;;;;;;12.34;100.00;97942.44;4975184;28;20026;-54
2023/12/30 10:16:06;;;;;;;580.88;292.85;;;;;;;12.02;100.00;97948.81;4970632;28;20035;-55
2023/12/30 10:18:40;;;;;;;621.20;301.33;;;;;;;11.96;100.00;97938.47;4974933;28;20072;-57
2023/12/30 10:21:07;;;;;;;736.28;303.42;;;;;;;12.04;100.00;97939.25;4973429;28;20474;-57
2023/12/30 10:23:35;;;;;;;696.10;294.45;;;;;;;11.90;100.00;97941.97;4974224;28;20030;-55
2023/12/30 10:26:02;;;;;;;719.55;288.38;;;;;;;11.92;100.00;97945.41;4974641;28;20272;-56
2023/12/30 10:28:28;;;;;;;606.38;285.45;;;;;;;11.72;100.00;97950.81;4976240;28;20025;-54
2023/12/30 10:31:04;;;;;;;581.60;285.88;;;;;;;11.63;100.00;97946.56;4970948;28;20035;-56
2023/12/30 10:33:30;;;;;;;659.78;325.77;;;;;;;11.90;100.00;97952.41;4973688;28;20110;-54
2023/12/30 10:35:56;;;;;;;619.42;278.35;;;;;;;12.06;100.00;97953.16;4974455;28;20169;-55
2023/12/30 10:38:22;;;;;;;651.80;268.17;;;;;;;12.19;100.00;97945.19;4977824;28;20490;-54
2023/12/30 10:40:50;;;;;;;640.13;340.10;;;;;;;12.13;100.00;97942.69;4977147;28;20043;-56
2023/12/30 10:43:15;;;;;;;626.47;268.90;;;;;;;12.22;100.00;97937.34;4977609;28;20101;-54
2023/12/30 10:45:40;;;;;;;606.63;274.98;;;;;;;12.53;100.00;97943.94;4977955;28;20282;-54
2023/12/30 10:48:07;;;;;;;639.22;267.20;;;;;;;12.32;100.00;97949.41;4976597;28;20039;-55
2023/12/30 10:50:36;;;;;;;582.03;281.35;;;;;;;11.97;100.00;97958.41;4979369;28;20509;-56
2023/12/30 10:53:05;;;;;;;658.33;294.20;;;;;;;11.99;100.00;97961.88;4976111;28;20024;-56